sensor_id;sensor_type;location;lat;lon;timestamp;pressure;altitude;pressure_sealevel;temperature;humidity
31162;BME280;17796;49.296;-117.656;2024-03-06T00:13:45;96000;;;1.9598;52.46033
31162;BME280;17796;49.296;-117.656;2024-03-06T00:28:49;96000;;;1.68288;50.16296
31162;BME280;17796;49.296;-117.656;2024-03-06T00:43:54;96000;;;1.89533;48.57081
31162;BME280;17796;49.296;-117.656;2024-03-06T00:58:58;96000;;;1.7537;44.51609
31162;BME280;17796;49.296;-117.656;2024-03-06T01:14:02;96000;;;1.52473;60.11665
31162;BME280;17796;49.296;-117.656;2024-03-06T01:29:06;96000;;;1.43454;60.71213
31162;BME280;17796;49.296;-117.656;2024-03-06T01:44:09;96000;;;-0.06246;69.36006
31162;BME280;17796;49.296;-117.656;2024-03-06T01:59:15;96000;;;-0.8751;78.27856
31162;BME280;17796;49.296;-117.656;2024-03-06T02:14:22;96100;;;-0.57881;72.31536
31162;BME280;17796;49.296;-117.656;2024-03-06T02:29:26;96100;;;-0.66678;79.04007
31162;BME280;17796;49.296;-117.656;2024-03-06T02:44:30;96100;;;-0.20663;80.49822
31162;BME280;17796;49.296;-117.656;2024-03-06T02:59:34;96100;;;-0.9602;87.00198
31162;BME280;17796;49.296;-117.656;2024-03-06T03:14:41;96100;;;-1.87318;86.42285
31162;BME280;17796;49.296;-117.656;2024-03-06T03:29:45;96100;;;-1.36223;87.93707
31162;BME280;17796;49.296;-117.656;2024-03-06T03:44:48;96100;;;-1.66042;90.45984
31162;BME280;17796;49.296;-117.656;2024-03-06T03:59:52;96200;;;-2.03735;94.74055
31162;BME280;17796;49.296;-117.656;2024-03-06T04:14:56;96200;;;-2.27393;95.27567
31162;BME280;17796;49.296;-117.656;2024-03-06T04:29:59;96200;;;-2.45526;96.81111
31162;BME280;17796;49.296;-117.656;2024-03-06T04:45:03;96200;;;-2.78392;98.90534
31162;BME280;17796;49.296;-117.656;2024-03-06T05:00:11;96200;;;-3.37997;94.77833
31162;BME280;17796;49.296;-117.656;2024-03-06T05:15:16;96200;;;-3.64163;100.0
31162;BME280;17796;49.296;-117.656;2024-03-06T05:30:20;96300;;;-4.57807;100.0
31162;BME280;17796;49.296;-117.656;2024-03-06T05:45:25;96300;;;-3.80739;100.0
31162;BME280;17796;49.296;-117.656;2024-03-06T06:00:28;96300;;;-3.98585;100.0
31162;BME280;17796;49.296;-117.656;2024-03-06T06:15:32;96300;;;-5.71012;100.0
31162;BME280;17796;49.296;-117.656;2024-03-06T06:30:37;96300;;;-4.45677;100.0
31162;BME280;17796;49.296;-117.656;2024-03-06T06:45:40;96300;;;-4.38882;100.0
31162;BME280;17796;49.296;-117.656;2024-03-06T07:00:44;96300;;;-5.22777;100.0
31162;BME280;17796;49.296;-117.656;2024-03-06T07:15:48;96300;;;-4.99692;100.0
31162;BME280;17796;49.296;-117.656;2024-03-06T07:30:51;96400;;;-5.34018;100.0
31162;BME280;17796;49.296;-117.656;2024-03-06T07:45:55;96400;;;-5.41353;100.0
31162;BME280;17796;49.296;-117.656;2024-03-06T08:01:00;96400;;;-5.39099;100.0
31162;BME280;17796;49.296;-117.656;2024-03-06T08:16:04;96400;;;-5.38305;100.0
31162;BME280;17796;49.296;-117.656;2024-03-06T08:31:08;96400;;;-5.11854;100.0
31162;BME280;17796;49.296;-117.656;2024-03-06T08:46:12;96400;;;-6.39759;100.0
31162;BME280;17796;49.296;-117.656;2024-03-06T09:01:16;96400;;;-6.35219;100.0
31162;BME280;17796;49.296;-117.656;2024-03-06T09:16:19;96400;;;-6.84882;100.0
31162;BME280;17796;49.296;-117.656;2024-03-06T09:31:23;96500;;;-6.87708;100.0
31162;BME280;17796;49.296;-117.656;2024-03-06T09:46:26;96500;;;-6.43157;100.0
31162;BME280;17796;49.296;-117.656;2024-03-06T10:01:31;96500;;;-7.02505;100.0
31162;BME280;17796;49.296;-117.656;2024-03-06T10:16:35;96500;;;-6.9047;100.0
31162;BME280;17796;49.296;-117.656;2024-03-06T10:31:38;96500;;;-7.8462;100.0
31162;BME280;17796;49.296;-117.656;2024-03-06T10:46:43;96500;;;-8.35552;100.0
31162;BME280;17796;49.296;-117.656;2024-03-06T11:01:47;96500;;;-7.43912;100.0
31162;BME280;17796;49.296;-117.656;2024-03-06T11:16:59;96500;;;-6.61257;100.0
31162;BME280;17796;49.296;-117.656;2024-03-06T11:32:06;96500;;;-7.44991;100.0
31162;BME280;17796;49.296;-117.656;2024-03-06T11:47:09;96500;;;-7.475;100.0
31162;BME280;17796;49.296;-117.656;2024-03-06T12:02:13;96500;;;-7.90018;100.0
31162;BME280;17796;49.296;-117.656;2024-03-06T12:17:17;96500;;;-7.38577;100.0
31162;BME280;17796;49.296;-117.656;2024-03-06T12:32:21;96500;;;-8.12531;100.0
31162;BME280;17796;49.296;-117.656;2024-03-06T12:47:26;96500;;;-7.28194;100.0
31162;BME280;17796;49.296;-117.656;2024-03-06T13:02:31;96500;;;-7.69759;100.0
31162;BME280;17796;49.296;-117.656;2024-03-06T13:17:34;96500;;;-7.82651;100.0
31162;BME280;17796;49.296;-117.656;2024-03-06T13:32:38;96500;;;-7.89319;100.0
31162;BME280;17796;49.296;-117.656;2024-03-06T13:47:42;96600;;;-7.70807;95.15143
31162;BME280;17796;49.296;-117.656;2024-03-06T14:02:47;96600;;;-8.18183;100.0
31162;BME280;17796;49.296;-117.656;2024-03-06T14:17:51;96600;;;-8.93374;100.0
31162;BME280;17796;49.296;-117.656;2024-03-06T14:32:55;96600;;;-9.54531;100.0
31162;BME280;17796;49.296;-117.656;2024-03-06T14:47:59;96600;;;-8.57684;100.0
31162;BME280;17796;49.296;-117.656;2024-03-06T15:03:03;96600;;;-9.14903;100.0
31162;BME280;17796;49.296;-117.656;2024-03-06T15:18:07;96600;;;-7.63948;100.0
31162;BME280;17796;49.296;-117.656;2024-03-06T15:33:11;96700;;;-5.71393;85.90164
31162;BME280;17796;49.296;-117.656;2024-03-06T15:48:14;96700;;;-2.7474;57.0306
31162;BME280;17796;49.296;-117.656;2024-03-06T16:03:18;96600;;;-1.17265;54.5742
31162;BME280;17796;49.296;-117.656;2024-03-06T16:18:22;96600;;;1.34626;57.9753
31162;BME280;17796;49.296;-117.656;2024-03-06T16:33:25;96600;;;-0.112;59.3754
31162;BME280;17796;49.296;-117.656;2024-03-06T16:48:29;96600;;;0.76765;55.26067
31162;BME280;17796;49.296;-117.656;2024-03-06T17:03:34;96600;;;2.21195;53.43141
31162;BME280;17796;49.296;-117.656;2024-03-06T17:18:38;96600;;;3.346;43.82562
31162;BME280;17796;49.296;-117.656;2024-03-06T17:33:42;96600;;;3.03827;38.82885
31162;BME280;17796;49.296;-117.656;2024-03-06T17:48:45;96600;;;5.14381;38.38179
31162;BME280;17796;49.296;-117.656;2024-03-06T18:03:49;96600;;;5.13364;48.12463
31162;BME280;17796;49.296;-117.656;2024-03-06T18:18:53;96600;;;5.59064;51.67215
31162;BME280;17796;49.296;-117.656;2024-03-06T18:33:56;96600;;;5.69926;44.84832
31162;BME280;17796;49.296;-117.656;2024-03-06T18:49:01;96600;;;4.79193;40.11838
31162;BME280;17796;49.296;-117.656;2024-03-06T19:04:04;96500;;;4.75541;41.31843
31162;BME280;17796;49.296;-117.656;2024-03-06T19:19:08;96500;;;4.64711;42.76806
31162;BME280;17796;49.296;-117.656;2024-03-06T19:34:12;96500;;;3.95257;38.73124
31162;BME280;17796;49.296;-117.656;2024-03-06T19:49:16;96500;;;5.86122;41.16504
31162;BME280;17796;49.296;-117.656;2024-03-06T20:04:20;96500;;;6.47861;38.98884
31162;BME280;17796;49.296;-117.656;2024-03-06T20:19:24;96400;;;6.29663;36.08923
31162;BME280;17796;49.296;-117.656;2024-03-06T20:34:28;96400;;;6.62374;38.34398
31162;BME280;17796;49.296;-117.656;2024-03-06T20:49:31;96400;;;5.35786;31.10177
31162;BME280;17796;49.296;-117.656;2024-03-06T21:04:35;96400;;;4.29746;31.59922
31162;BME280;17796;49.296;-117.656;2024-03-06T21:19:39;96400;;;3.97194;38.94316
31162;BME280;17796;49.296;-117.656;2024-03-06T21:34:43;96400;;;5.51951;33.35869
31162;BME280;17796;49.296;-117.656;2024-03-06T21:49:47;96400;;;5.14317;36.20045
31162;BME280;17796;49.296;-117.656;2024-03-06T22:04:51;96400;;;4.01799;33.14506
31162;BME280;17796;49.296;-117.656;2024-03-06T22:19:55;96300;;;5.36897;39.50635
31162;BME280;17796;49.296;-117.656;2024-03-06T22:34:59;96300;;;4.61758;35.38642
31162;BME280;17796;49.296;-117.656;2024-03-06T22:50:02;96300;;;4.34573;36.96276
31162;BME280;17796;49.296;-117.656;2024-03-06T23:05:07;96300;;;5.14571;37.39756
31162;BME280;17796;49.296;-117.656;2024-03-06T23:20:11;96300;;;5.23495;32.42061
31162;BME280;17796;49.296;-117.656;2024-03-06T23:35:15;96300;;;4.53342;39.81001
31162;BME280;17796;49.296;-117.656;2024-03-06T23:50:19;96300;;;3.47017;44.12215
